Time;durP1;ratioP1;P1;durP2;ratioP2;P2;SDS_P1;SDS_P2;PMS_P1;PMS_P2;Temp;Humidity;BMP_temperature;BMP_pressure;BME280_temperature;BME280_humidity;BME280_pressure;Samples;Min_cycle;Max_cycle;Signal;HPM_P1;HPM_P2
2021/12/25 00:00:10;;;;;;;12.27;11.03;;;7.20;99.90;;;5.81;100.00;96773.66;5024824;28;20488;-69
2021/12/25 00:02:39;;;;;;;11.90;10.70;;;7.20;99.90;;;5.84;100.00;96770.56;5023441;28;21081;-70
2021/12/25 00:05:08;;;;;;;12.50;11.20;;;7.20;99.90;;;5.85;100.00;96792.81;5026355;28;20515;-72
2021/12/25 00:07:35;;;;;;;12.70;11.27;;;7.20;99.90;;;5.93;100.00;96781.84;5018688;28;20974;-72
2021/12/25 00:10:03;;;;;;;10.87;9.80;;;7.20;99.90;;;5.93;100.00;96774.63;5028178;28;20949;-68
2021/12/25 00:12:31;;;;;;;11.83;9.57;;;7.30;99.90;;;5.85;100.00;96782.94;5026252;28;20509;-70
2021/12/25 00:14:58;;;;;;;11.80;9.90;;;7.20;99.90;;;5.99;100.00;96782.81;5026049;28;20493;-75
2021/12/25 00:17:26;;;;;;;10.93;9.80;;;7.20;99.90;;;5.96;100.00;96784.09;5026153;28;20968;-70
2021/12/25 00:19:54;;;;;;;11.07;9.77;;;7.20;99.90;;;5.97;100.00;96793.78;5026280;28;20546;-69
2021/12/25 00:22:22;;;;;;;11.10;9.93;;;7.20;99.90;;;5.90;100.00;96777.75;5024949;28;20917;-69
2021/12/25 00:24:50;;;;;;;11.40;10.20;;;7.20;99.90;;;5.83;100.00;96758.19;5028294;28;21025;-70
2021/12/25 00:27:38;;;;;;;10.33;9.20;;;7.20;99.90;;;5.94;100.00;96786.19;5031409;28;20827;-69
2021/12/25 00:30:20;;;;;;;10.63;9.53;;;7.20;99.90;;;5.96;100.00;96784.91;5021007;28;20485;-67
2021/12/25 00:32:55;;;;;;;13.10;10.83;;;7.20;99.90;;;5.85;100.00;96788.28;5029838;28;20922;-68
2021/12/25 00:35:23;;;;;;;10.73;9.63;;;7.20;99.90;;;5.84;100.00;96786.66;5027630;28;20478;-73
2021/12/25 00:37:51;;;;;;;11.33;9.27;;;7.10;99.90;;;5.48;100.00;96729.13;5026199;28;20554;-67
2021/12/25 00:40:18;;;;;;;11.13;9.97;;;7.10;99.90;;;5.90;100.00;96775.06;5025905;28;20517;-73
2021/12/25 00:42:46;;;;;;;12.77;9.67;;;7.10;99.90;;;5.86;100.00;96773.84;5040834;28;20458;-72
2021/12/25 00:45:13;;;;;;;10.73;9.53;;;7.10;99.90;;;5.77;100.00;96761.72;5025017;28;20469;-70
2021/12/25 00:47:41;;;;;;;10.80;8.50;;;7.10;99.90;;;5.63;100.00;96780.56;5025331;28;20465;-70
2021/12/25 00:50:10;;;;;;;12.70;10.43;;;7.10;99.90;;;5.75;100.00;96782.56;5025643;28;20985;-72
2021/12/25 00:52:38;;;;;;;13.40;10.43;;;7.10;99.90;;;5.67;100.00;96765.69;5025576;28;20521;-68
2021/12/25 00:55:07;;;;;;;11.37;10.00;;;7.10;99.90;;;5.66;100.00;96785.50;5028011;28;20459;-67
2021/12/25 00:57:37;;;;;;;12.00;9.70;;;7.00;99.90;;;5.74;100.00;96775.56;5025165;28;20577;-69
2021/12/25 01:00:09;;;;;;;11.63;8.93;;;7.10;99.90;;;5.63;100.00;96764.47;5027246;28;20486;-74
2021/12/25 01:02:40;;;;;;;12.53;9.43;;;7.00;99.90;;;5.82;100.00;96780.66;5041964;28;20518;-69
2021/12/25 01:05:09;;;;;;;13.60;10.30;;;7.10;99.90;;;5.78;100.00;96784.81;5026687;28;21029;-68
2021/12/25 01:07:38;;;;;;;10.20;8.23;;;7.10;99.90;;;5.89;100.00;96789.50;5020770;28;20838;-68
2021/12/25 01:10:10;;;;;;;8.83;7.40;;;7.10;99.90;;;5.82;100.00;96794.06;5030094;28;20585;-69
2021/12/25 01:12:51;;;;;;;12.77;7.80;;;7.10;99.90;;;5.78;100.00;96792.84;5042457;28;20447;-70
2021/12/25 01:15:22;;;;;;;8.20;7.40;;;7.10;99.90;;;5.72;100.00;96788.38;5027435;28;20966;-71
2021/12/25 01:18:14;;;;;;;8.30;7.43;;;7.00;99.90;;;5.76;100.00;96789.56;5028822;28;20486;-74
2021/12/25 01:23:52;;;;;;;8.90;8.00;;;7.10;99.90;;;5.84;100.00;96786.66;5025651;28;21072;-68
2021/12/25 01:26:45;;;;;;;10.13;7.57;;;7.10;99.90;;;5.82;100.00;96788.69;5026435;28;20455;-72
2021/12/25 01:29:25;;;;;;;9.87;8.30;;;7.10;99.90;;;5.83;100.00;96784.97;5030440;28;20608;-74
2021/12/25 01:32:11;;;;;;;9.90;7.87;;;7.10;99.90;;;5.85;100.00;96799.03;5027062;28;20459;-71
2021/12/25 01:35:01;;;;;;;8.10;7.33;;;7.10;99.90;;;5.27;100.00;96709.66;5027318;28;20462;-73
2021/12/25 01:37:38;;;;;;;8.13;7.00;;;7.10;99.90;;;5.85;100.00;96790.13;5019690;28;20453;-71
2021/12/25 01:40:23;;;;;;;8.10;7.03;;;7.10;99.90;;;5.93;100.00;96785.34;5026185;28;20629;-69
2021/12/25 01:48:27;;;;;;;9.60;8.30;;;7.10;99.90;;;5.95;100.00;96794.00;5003764;28;20534;-70
2021/12/25 01:50:55;;;;;;;8.57;7.63;;;7.10;99.90;;;5.89;100.00;96794.03;5030045;28;20485;-68
2021/12/25 01:53:22;;;;;;;10.50;8.63;;;7.10;99.90;;;5.85;100.00;96780.25;5028467;28;20542;-74
2021/12/25 01:55:50;;;;;;;9.37;8.10;;;7.10;99.90;;;5.81;100.00;96784.38;5026295;28;21256;-71
2021/12/25 01:58:17;;;;;;;9.40;8.20;;;7.10;99.90;;;5.79;100.00;96781.09;5029661;28;20455;-70
2021/12/25 02:00:48;;;;;;;9.80;8.80;;;7.10;99.90;;;5.67;100.00;96792.50;5026873;28;20522;-74
2021/12/25 02:03:19;;;;;;;11.60;8.83;;;7.00;99.90;;;5.67;100.00;96784.44;5044961;28;20857;-68
2021/12/25 02:05:46;;;;;;;10.07;8.90;;;7.00;99.90;;;5.58;100.00;96783.06;5026253;28;20473;-68
2021/12/25 02:08:13;;;;;;;9.97;8.97;;;6.90;99.90;;;5.55;100.00;96786.19;5029395;28;21018;-68
2021/12/25 02:10:41;;;;;;;12.70;9.70;;;6.80;99.90;;;5.57;100.00;96789.47;5026025;28;20533;-73
2021/12/25 02:13:11;;;;;;;13.07;10.63;;;6.80;99.90;;;5.56;100.00;96792.34;5029138;28;20454;-70
2021/12/25 02:15:41;;;;;;;11.07;9.87;;;6.90;99.90;;;5.61;100.00;96788.00;5027595;28;20466;-69
2021/12/25 02:18:13;;;;;;;12.07;9.87;;;6.90;99.90;;;5.56;100.00;96787.81;5026011;28;20456;-67
2021/12/25 02:20:50;;;;;;;10.70;9.03;;;6.90;99.90;;;5.67;100.00;96797.03;5028037;28;20461;-71
2021/12/25 02:23:22;;;;;;;10.77;9.43;;;6.90;99.90;;;5.76;100.00;96786.91;5027363;28;20457;-72
2021/12/25 02:25:52;;;;;;;11.80;10.07;;;7.00;99.90;;;5.68;100.00;96782.59;5028157;28;20471;-69
2021/12/25 02:28:19;;;;;;;12.13;10.40;;;7.00;99.90;;;5.67;100.00;96772.94;5027106;28;20500;-71
2021/12/25 02:30:50;;;;;;;12.53;10.40;;;6.90;99.90;;;5.54;100.00;96757.75;5027358;28;20455;-71
2021/12/25 02:33:17;;;;;;;12.10;10.20;;;6.90;99.90;;;5.62;100.00;96772.75;5028230;28;20570;-71
2021/12/25 02:35:46;;;;;;;14.13;10.40;;;6.90;99.90;;;5.61;100.00;96776.44;5026753;28;20501;-70
2021/12/25 02:38:14;;;;;;;13.07;10.40;;;6.90;99.90;;;5.72;100.00;96764.25;5024959;28;20561;-68
2021/12/25 02:40:42;;;;;;;12.17;10.40;;;7.00;99.90;;;5.68;100.00;96755.81;5029346;28;20811;-68
2021/12/25 02:43:09;;;;;;;13.70;10.40;;;7.00;99.90;;;5.76;100.00;96765.44;5028453;28;20625;-72
2021/12/25 02:45:36;;;;;;;11.33;10.13;;;7.00;99.90;;;5.66;100.00;96764.03;5027597;28;20486;-67
2021/12/25 02:48:09;;;;;;;14.93;11.13;;;7.00;99.90;;;5.66;100.00;96772.09;5028799;28;20474;-69
2021/12/25 02:50:39;;;;;;;11.87;9.90;;;6.90;99.90;;;5.77;100.00;96775.13;5028131;28;20566;-68
2021/12/25 02:53:10;;;;;;;12.53;10.80;;;7.00;99.90;;;5.92;100.00;96766.81;5028835;28;20956;-70
2021/12/25 02:55:38;;;;;;;12.10;10.27;;;7.10;99.90;;;5.95;100.00;96771.72;5026419;28;20459;-67
2021/12/25 02:58:06;;;;;;;14.90;11.80;;;7.20;99.90;;;5.96;100.00;96766.13;5044576;28;21025;-69
2021/12/25 03:00:39;;;;;;;12.20;10.37;;;7.20;99.90;;;5.81;100.00;96761.09;5029197;28;20475;-68
2021/12/25 03:03:07;;;;;;;15.20;11.50;;;7.10;99.90;;;5.85;100.00;96764.16;5032827;28;20495;-71
2021/12/25 03:05:35;;;;;;;14.73;11.10;;;7.10;99.90;;;5.81;100.00;96760.25;5024539;28;21052;-68
2021/12/25 03:08:03;;;;;;;14.33;12.17;;;7.10;99.90;;;5.75;100.00;96764.63;5027287;28;20458;-67
2021/12/25 03:10:33;;;;;;;12.60;11.30;;;7.00;99.90;;;5.75;100.00;96761.13;5024615;28;20565;-68
2021/12/25 03:13:28;;;;;;;14.80;12.53;;;7.00;99.90;;;5.70;100.00;96760.97;5028082;28;20930;-69
2021/12/25 03:15:55;;;;;;;15.47;12.47;;;7.00;99.90;;;5.72;100.00;96750.84;5040979;28;20440;-67
2021/12/25 03:18:28;;;;;;;16.70;12.30;;;7.00;99.90;;;5.74;100.00;96743.41;5024155;28;20553;-69
2021/12/25 03:20:58;;;;;;;14.40;11.70;;;7.10;99.90;;;5.66;100.00;96726.53;5024726;28;20538;-67
2021/12/25 03:23:29;;;;;;;15.27;13.20;;;7.10;99.90;;;5.75;100.00;96739.69;5043688;28;20462;-71
2021/12/25 03:26:00;;;;;;;17.07;13.30;;;7.10;99.90;;;5.70;100.00;96737.66;5025416;28;20558;-68
2021/12/25 03:28:31;;;;;;;16.53;12.40;;;7.10;99.90;;;5.64;100.00;96723.25;5026326;28;20558;-67
2021/12/25 03:31:00;;;;;;;16.60;13.53;;;7.10;99.90;;;5.69;100.00;96736.00;5028564;28;20453;-68
2021/12/25 03:33:29;;;;;;;14.53;11.57;;;7.00;99.90;;;5.67;100.00;96736.22;5034452;28;21169;-67
2021/12/25 03:35:57;;;;;;;14.60;12.63;;;7.00;99.90;;;5.73;100.00;96731.03;5043837;28;20517;-73
2021/12/25 03:38:26;;;;;;;13.60;12.03;;;7.00;99.90;;;5.65;100.00;96726.75;5027474;28;20462;-67
2021/12/25 03:40:54;;;;;;;15.33;12.80;;;7.00;99.90;;;5.57;100.00;96732.38;5027029;28;20454;-70
2021/12/25 03:43:23;;;;;;;14.73;12.50;;;6.90;99.90;;;5.63;100.00;96729.66;5030474;28;20478;-70
2021/12/25 03:45:50;;;;;;;14.80;12.20;;;6.90;99.90;;;5.52;100.00;96725.81;5025482;28;20486;-71
2021/12/25 03:48:41;;;;;;;14.40;12.23;;;6.90;99.90;;;5.60;100.00;96734.59;5025935;28;20907;-73
2021/12/25 03:59:17;;;;;;;15.10;12.13;;;6.90;99.90;;;5.21;100.00;96675.69;5027054;28;20487;-72
2021/12/25 04:01:49;;;;;;;13.67;11.80;;;6.90;99.90;;;5.56;100.00;96733.41;5026211;28;20462;-69
2021/12/25 04:04:21;;;;;;;14.50;11.80;;;6.90;99.90;;;5.59;100.00;96724.94;5026302;28;20489;-69
2021/12/25 04:06:57;;;;;;;15.20;12.40;;;6.80;99.90;;;5.81;100.00;96726.25;5026731;28;20458;-72
2021/12/25 04:09:26;;;;;;;14.57;11.97;;;7.00;99.90;;;5.81;100.00;96728.09;5025733;28;20465;-69
2021/12/25 04:11:53;;;;;;;15.43;12.20;;;7.00;99.90;;;5.86;100.00;96724.75;5028048;28;20550;-69
2021/12/25 04:14:22;;;;;;;13.63;11.37;;;7.10;99.90;;;5.88;100.00;96728.88;5025594;28;20463;-69
2021/12/25 04:16:49;;;;;;;16.47;12.60;;;7.10;99.90;;;5.90;100.00;96732.16;5026815;28;20462;-69
2021/12/25 04:19:17;;;;;;;14.70;12.63;;;7.20;99.90;;;5.79;100.00;96730.16;5027191;28;20977;-69
2021/12/25 04:21:52;;;;;;;14.03;11.77;;;7.10;99.90;;;5.67;100.00;96730.03;5026414;28;20622;-68
2021/12/25 04:24:19;;;;;;;17.47;12.47;;;7.10;99.90;;;5.63;100.00;96720.81;5028905;28;20466;-68
2021/12/25 04:26:48;;;;;;;16.07;13.07;;;7.00;99.90;;;5.56;100.00;96712.81;5025091;28;20465;-69
2021/12/25 04:29:36;;;;;;;14.33;12.43;;;7.00;99.90;;;5.56;100.00;96720.84;5026723;28;20481;-70
2021/12/25 04:32:35;;;;;;;13.60;11.93;;;7.00;99.90;;;5.62;100.00;96732.56;5028287;28;20458;-72
2021/12/25 05:03:07;;;;;;;15.57;12.90;;;7.10;99.90;;;5.81;100.00;96720.03;5028427;28;20463;-70
2021/12/25 05:05:36;;;;;;;17.13;13.27;;;7.10;99.90;;;5.45;100.00;96638.47;5029756;28;20520;-69
2021/12/25 05:08:03;;;;;;;20.53;14.00;;;7.20;99.90;;;5.77;100.00;96710.81;5028927;28;20545;-71
2021/12/25 05:10:30;;;;;;;14.40;11.90;;;7.10;99.90;;;5.27;100.00;96650.75;5028403;28;20463;-68
2021/12/25 05:12:57;;;;;;;19.90;14.57;;;7.10;99.90;;;5.55;100.00;96713.84;5030784;28;20498;-69
2021/12/25 05:15:24;;;;;;;17.93;13.80;;;7.00;99.90;;;5.55;100.00;96705.81;5029584;28;20500;-70
2021/12/25 05:17:51;;;;;;;18.87;14.40;;;7.00;99.90;;;5.49;100.00;96703.97;5029952;28;20473;-70
2021/12/25 05:20:18;;;;;;;19.27;14.33;;;7.00;99.90;;;5.58;100.00;96712.56;5045762;28;20459;-71
2021/12/25 05:22:47;;;;;;;20.47;14.50;;;6.90;99.90;;;5.62;100.00;96719.97;5027944;28;20463;-68
2021/12/25 05:25:15;;;;;;;19.50;14.67;;;6.90;99.90;;;5.59;100.00;96715.03;5028519;28;20461;-68
2021/12/25 05:27:44;;;;;;;20.47;15.20;;;6.90;99.90;;;5.31;100.00;96681.41;5027283;28;20471;-70
2021/12/25 05:30:12;;;;;;;16.23;13.40;;;6.80;99.90;;;5.58;100.00;96713.41;5029573;28;20638;-71
2021/12/25 05:32:39;;;;;;;23.07;15.80;;;6.90;99.90;;;5.65;100.00;96699.97;5030410;28;20481;-70
2021/12/25 05:35:07;;;;;;;21.33;15.70;;;6.90;99.90;;;5.63;100.00;96713.56;5030695;28;20467;-68
2021/12/25 05:37:34;;;;;;;20.20;15.53;;;6.90;99.90;;;5.71;100.00;96714.38;5027787;28;21112;-73
2021/12/25 05:40:03;;;;;;;20.20;14.23;;;6.90;99.90;;;5.77;100.00;96713.50;5029201;28;20494;-69
2021/12/25 05:42:29;;;;;;;22.10;15.40;;;7.00;99.90;;;5.60;100.00;96713.16;5031956;28;20545;-69
2021/12/25 05:44:56;;;;;;;23.47;15.93;;;6.90;99.90;;;5.59;100.00;96715.03;5029314;28;20716;-67
2021/12/25 05:47:23;;;;;;;20.70;15.20;;;6.90;99.90;;;5.65;100.00;96714.16;5028578;28;21371;-70
2021/12/25 05:49:50;;;;;;;18.10;14.33;;;6.90;99.90;;;5.65;100.00;96716.84;5025936;28;20471;-69
2021/12/25 05:52:17;;;;;;;22.20;16.23;;;6.90;99.90;;;5.65;100.00;96708.81;5028314;28;20450;-70
2021/12/25 05:54:44;;;;;;;18.67;14.97;;;6.90;99.90;;;5.64;100.00;96707.16;5028257;28;20471;-70
2021/12/25 05:57:12;;;;;;;21.30;14.93;;;6.90;99.90;;;5.62;100.00;96714.59;5030348;28;20460;-70
2021/12/25 05:59:40;;;;;;;23.10;14.53;;;6.90;99.90;;;5.66;100.00;96710.44;5027627;28;20463;-71
2021/12/25 06:02:07;;;;;;;22.23;15.60;;;6.90;99.90;;;5.48;100.00;96713.03;5045858;28;20512;-68
2021/12/25 06:04:34;;;;;;;22.80;15.50;;;6.80;99.90;;;5.52;100.00;96719.59;5028526;28;20503;-73
2021/12/25 06:07:01;;;;;;;19.00;13.87;;;6.80;99.90;;;5.52;100.00;96716.94;5028538;28;20599;-68
2021/12/25 06:09:29;;;;;;;21.73;15.07;;;6.80;99.90;;;5.65;100.00;96716.84;5043092;28;20894;-69
2021/12/25 06:11:56;;;;;;;18.53;13.80;;;6.90;99.90;;;5.66;100.00;96728.41;5027502;28;20487;-71
2021/12/25 06:14:24;;;;;;;21.97;14.70;;;6.90;99.90;;;5.59;100.00;96728.44;5025871;28;20562;-71
2021/12/25 06:16:51;;;;;;;22.57;14.57;;;6.90;99.90;;;5.75;100.00;96728.97;5025825;28;21038;-70
2021/12/25 06:19:18;;;;;;;19.37;12.97;;;6.90;99.90;;;5.58;100.00;96724.13;5041769;28;20471;-69
2021/12/25 06:21:47;;;;;;;17.30;13.33;;;6.90;99.90;;;5.41;100.00;96709.59;5029904;28;20972;-71
2021/12/25 06:24:15;;;;;;;20.33;14.77;;;6.90;99.90;;;5.71;100.00;96720.53;5027650;28;20470;-73
2021/12/25 06:26:42;;;;;;;18.23;12.70;;;6.90;99.90;;;5.74;100.00;96730.00;5028931;28;20508;-73
2021/12/25 06:29:14;;;;;;;17.37;12.87;;;7.00;99.90;;;5.71;100.00;96727.75;5028270;28;20491;-69
2021/12/25 06:31:42;;;;;;;23.33;14.30;;;7.00;99.90;;;5.73;100.00;96729.16;5019683;28;20475;-71
2021/12/25 06:34:09;;;;;;;16.40;12.17;;;7.00;99.90;;;5.69;100.00;96727.97;5029049;28;20910;-69
2021/12/25 06:36:36;;;;;;;19.20;13.07;;;7.00;99.90;;;5.71;100.00;96735.81;5029008;28;20987;-74
2021/12/25 06:39:05;;;;;;;18.10;12.30;;;6.90;99.90;;;5.56;100.00;96736.91;5026560;28;20463;-70
2021/12/25 06:41:32;;;;;;;17.50;12.40;;;6.90;99.90;;;5.57;100.00;96727.84;5029981;28;20455;-69
2021/12/25 06:43:59;;;;;;;17.90;12.90;;;6.80;99.90;;;5.60;100.00;96719.38;5028007;28;20466;-71
2021/12/25 06:46:26;;;;;;;17.50;13.87;;;6.90;99.90;;;5.53;100.00;96732.78;5026549;28;20443;-67
2021/12/25 06:48:55;;;;;;;18.43;12.07;;;6.90;99.90;;;5.50;100.00;96733.22;5025873;28;20546;-68
2021/12/25 06:51:22;;;;;;;19.47;13.33;;;6.80;99.90;;;5.43;100.00;96735.13;5027288;28;20482;-68
2021/12/25 06:53:49;;;;;;;19.33;12.87;;;6.80;99.90;;;5.47;100.00;96728.31;5026507;28;21058;-68
2021/12/25 06:56:17;;;;;;;17.87;12.83;;;6.80;99.90;;;5.39;100.00;96716.00;5024839;28;20455;-67
2021/12/25 06:58:45;;;;;;;18.70;11.90;;;6.80;99.90;;;5.48;100.00;96732.63;5026437;28;20585;-70
2021/12/25 07:01:12;;;;;;;18.10;12.90;;;6.80;99.90;;;5.44;100.00;96739.44;5043827;28;20465;-75
2021/12/25 07:03:39;;;;;;;17.60;12.47;;;6.80;99.90;;;5.31;100.00;96718.91;5025199;28;20455;-74
2021/12/25 07:06:07;;;;;;;17.20;12.90;;;6.70;99.90;;;5.30;100.00;96682.44;5029992;28;20842;-75
2021/12/25 07:08:34;;;;;;;18.53;12.57;;;6.80;99.90;;;5.36;100.00;96726.31;5027260;28;20463;-77
2021/12/25 07:11:01;;;;;;;16.23;11.70;;;6.70;99.90;;;5.38;100.00;96711.66;5027327;28;20576;-71
2021/12/25 07:13:28;;;;;;;19.33;12.77;;;6.80;99.90;;;5.46;100.00;96741.91;5026684;28;20759;-72
2021/12/25 07:15:55;;;;;;;16.93;11.63;;;6.80;99.90;;;5.51;100.00;96734.03;5027058;28;20806;-71
2021/12/25 07:18:22;;;;;;;17.20;11.27;;;6.80;99.90;;;5.56;100.00;96734.25;5026024;28;20753;-72
2021/12/25 07:20:51;;;;;;;17.40;11.60;;;6.80;99.90;;;5.47;100.00;96743.56;5027502;28;20498;-72
2021/12/25 07:23:19;;;;;;;15.97;11.13;;;6.80;99.90;;;5.53;100.00;96746.19;5025390;28;20518;-77
2021/12/25 07:25:46;;;;;;;15.70;10.50;;;6.80;99.90;;;5.58;100.00;96740.19;5028799;28;20554;-72
2021/12/25 07:28:13;;;;;;;16.10;11.33;;;6.80;99.90;;;5.53;100.00;96742.69;5027300;28;20499;-72
2021/12/25 07:30:40;;;;;;;16.77;10.30;;;6.80;99.90;;;5.94;100.00;96746.78;5030503;28;20478;-71
2021/12/25 07:33:07;;;;;;;15.00;10.80;;;7.00;99.90;;;5.66;100.00;96731.88;5025658;28;21021;-71
2021/12/25 07:35:34;;;;;;;13.17;10.13;;;7.00;99.90;;;6.18;100.00;96747.06;5028293;28;20538;-71
2021/12/25 07:38:01;;;;;;;19.10;10.23;;;7.30;99.90;;;6.02;100.00;96740.34;5024578;28;20666;-72
2021/12/25 07:40:30;;;;;;;18.60;10.80;;;7.30;99.90;;;6.57;100.00;96746.09;5043715;28;20498;-71
2021/12/25 07:42:57;;;;;;;12.53;8.90;;;7.50;99.90;;;6.29;100.00;96750.03;5029004;28;20473;-72
2021/12/25 07:45:24;;;;;;;7.30;6.30;;;7.50;99.90;;;5.47;100.00;96696.16;5026242;28;20504;-72
2021/12/25 07:47:58;;;;;;;4.07;3.70;;;7.30;99.90;;;5.39;100.00;96756.16;5024807;28;20447;-72
2021/12/25 07:50:25;;;;;;;6.53;5.03;;;6.90;99.90;;;5.17;100.00;96752.13;5041580;28;20503;-71
2021/12/25 07:52:53;;;;;;;4.73;4.17;;;6.60;99.90;;;4.45;100.00;96686.84;5026493;28;20542;-71
2021/12/25 07:55:20;;;;;;;4.60;4.10;;;6.40;99.90;;;4.65;100.00;96744.88;5042769;28;20483;-73
2021/12/25 07:57:49;;;;;;;3.93;3.40;;;6.20;99.90;;;4.57;100.00;96750.44;5027180;28;20549;-72
2021/12/25 08:00:17;;;;;;;4.77;3.80;;;6.10;99.90;;;4.52;100.00;96765.25;5043975;28;20554;-73
2021/12/25 08:02:46;;;;;;;5.30;3.93;;;5.90;99.90;;;4.33;100.00;96747.38;5041221;28;20965;-71
2021/12/25 08:05:14;;;;;;;4.70;4.10;;;5.90;99.90;;;4.32;100.00;96761.75;5029496;28;20557;-73
2021/12/25 08:07:42;;;;;;;3.93;3.60;;;5.80;99.90;;;4.21;100.00;96761.38;5024942;28;20455;-72
2021/12/25 08:10:13;;;;;;;5.40;4.73;;;5.70;99.90;;;4.16;100.00;96768.34;5028365;28;20501;-72
2021/12/25 08:12:43;;;;;;;4.63;4.23;;;5.60;99.90;;;4.27;100.00;96770.41;5026596;28;21013;-73
2021/12/25 08:15:14;;;;;;;4.70;3.97;;;5.60;99.90;;;4.18;100.00;96769.81;5031409;28;20534;-75
2021/12/25 08:17:41;;;;;;;4.67;4.10;;;5.60;99.90;;;4.17;100.00;96768.16;5025425;28;20459;-72
2021/12/25 08:20:11;;;;;;;5.40;4.53;;;5.60;99.90;;;4.14;100.00;96768.53;5024380;28;20949;-73
2021/12/25 08:22:39;;;;;;;4.90;4.43;;;5.60;99.90;;;4.13;100.00;96772.25;5027266;28;20462;-73
2021/12/25 08:25:07;;;;;;;5.00;4.43;;;5.60;99.90;;;4.08;100.00;96777.41;5032498;28;20519;-73
2021/12/25 08:27:36;;;;;;;4.80;3.97;;;5.60;99.90;;;4.21;100.00;96771.22;5026342;28;20505;-72
2021/12/25 08:30:04;;;;;;;4.43;3.00;;;5.60;99.90;;;4.09;100.00;96779.03;5030295;28;20578;-72
2021/12/25 08:32:32;;;;;;;3.13;2.83;;;5.60;99.90;;;3.89;100.00;96781.69;5053197;28;20459;-73
2021/12/25 08:34:59;;;;;;;3.40;3.10;;;5.50;99.90;;;3.87;100.00;96787.25;5047064;28;20528;-73
2021/12/25 08:37:27;;;;;;;3.27;2.70;;;5.40;99.90;;;3.81;100.00;96780.03;5038141;28;20529;-73
2021/12/25 08:39:54;;;;;;;2.17;2.07;;;5.30;99.90;;;3.63;100.00;96784.09;5033367;28;20516;-71
2021/12/25 08:42:23;;;;;;;2.30;2.10;;;5.20;99.90;;;3.57;100.00;96779.56;5031563;28;21064;-72
2021/12/25 08:45:05;;;;;;;2.00;1.80;;;5.10;99.90;;;3.53;100.00;96797.00;5033609;28;20771;-75
2021/12/25 08:47:38;;;;;;;2.40;2.20;;;5.00;99.90;;;3.46;100.00;96788.97;5029427;28;20485;-74
2021/12/25 08:50:08;;;;;;;2.40;2.10;;;5.00;99.90;;;3.39;100.00;96790.78;5026131;28;20458;-72
2021/12/25 08:52:36;;;;;;;2.47;2.27;;;4.90;99.90;;;3.33;100.00;96789.75;5028537;28;20570;-75
2021/12/25 08:55:06;;;;;;;2.93;2.50;;;4.90;99.90;;;3.40;100.00;96790.59;5031553;28;20498;-74
2021/12/25 08:57:33;;;;;;;2.47;2.27;;;4.90;99.90;;;3.58;100.00;96804.41;5029488;28;20509;-73
2021/12/25 09:00:00;;;;;;;2.57;2.37;;;5.00;99.90;;;3.56;100.00;96799.25;5029515;28;20459;-73
2021/12/25 09:02:27;;;;;;;2.80;2.37;;;5.00;99.90;;;2.78;100.00;96691.78;5027335;28;20459;-74
2021/12/25 09:04:56;;;;;;;2.30;2.10;;;4.90;99.90;;;3.30;100.00;96800.81;5031863;28;20499;-75
2021/12/25 09:07:23;;;;;;;2.60;2.23;;;4.80;99.90;;;3.26;100.00;96788.88;5047020;28;20907;-74
2021/12/25 09:09:50;;;;;;;2.50;2.30;;;4.90;99.90;;;3.34;100.00;96812.75;5030335;28;20462;-74
2021/12/25 09:12:19;;;;;;;2.60;1.83;;;4.80;99.90;;;3.25;100.00;96811.25;5044628;28;21163;-73
2021/12/25 09:14:46;;;;;;;2.10;2.00;;;4.80;99.90;;;3.13;100.00;96823.53;5032767;28;20938;-73
2021/12/25 09:17:14;;;;;;;1.63;1.53;;;4.60;99.90;;;3.06;100.00;96810.16;5044248;28;20552;-74
2021/12/25 09:19:42;;;;;;;1.80;1.70;;;4.70;99.90;;;3.15;100.00;96818.81;5028049;28;20590;-73
2021/12/25 09:22:12;;;;;;;1.30;1.20;;;4.70;99.90;;;3.11;100.00;96823.72;5029606;28;20498;-73
2021/12/25 09:24:40;;;;;;;1.70;1.60;;;4.60;99.90;;;3.16;100.00;96828.47;5030504;28;20892;-73
2021/12/25 09:27:07;;;;;;;2.20;1.50;;;4.60;99.90;;;3.07;100.00;96833.16;5028686;28;20540;-73
2021/12/25 09:29:35;;;;;;;1.80;1.70;;;4.60;99.90;;;3.04;100.00;96831.69;5034890;28;20527;-73
2021/12/25 09:32:03;;;;;;;1.87;1.77;;;4.50;99.90;;;2.90;100.00;96832.63;5026162;28;20486;-73
2021/12/25 09:34:30;;;;;;;1.90;1.80;;;4.40;99.90;;;3.01;100.00;96834.75;5030362;28;20512;-72
2021/12/25 09:36:57;;;;;;;1.50;1.40;;;4.50;99.90;;;2.97;100.00;96838.84;5027426;28;20517;-73
2021/12/25 09:39:25;;;;;;;1.40;1.30;;;4.50;99.90;;;2.86;99.88;96847.38;5032560;28;20558;-75
2021/12/25 09:41:53;;;;;;;1.40;1.30;;;4.40;99.90;;;2.88;99.22;96846.19;5030607;28;21028;-74
2021/12/25 09:44:20;;;;;;;1.10;1.10;;;4.40;99.90;;;2.78;98.67;96851.84;5044973;28;20510;-75
2021/12/25 09:46:47;;;;;;;2.60;1.37;;;4.30;99.20;;;2.71;98.32;96855.47;5029298;28;20892;-75
2021/12/25 09:49:14;;;;;;;1.73;1.63;;;4.30;98.60;;;2.73;99.31;96872.94;5030858;28;20856;-72
2021/12/25 09:51:41;;;;;;;1.57;1.40;;;4.30;99.90;;;2.67;99.89;96868.41;5028148;28;20459;-71
2021/12/25 09:54:11;;;;;;;1.40;1.30;;;4.20;99.90;;;2.87;98.40;96859.72;5030525;28;20482;-74
2021/12/25 09:56:42;;;;;;;2.23;1.83;;;4.30;99.90;;;2.09;98.82;96762.72;5029601;28;20565;-74
2021/12/25 09:59:12;;;;;;;1.40;1.30;;;4.30;99.90;;;2.65;98.40;96867.75;5041105;28;20871;-72
2021/12/25 10:01:42;;;;;;;1.87;1.70;;;4.20;98.80;;;2.62;99.11;96866.31;5028184;28;20467;-73
2021/12/25 10:04:13;;;;;;;1.30;1.20;;;4.10;99.90;;;2.36;98.52;96842.91;5030656;28;20461;-73
2021/12/25 10:06:44;;;;;;;1.50;1.40;;;4.00;98.70;;;2.43;99.35;96858.94;5026761;28;20872;-73
2021/12/25 10:09:23;;;;;;;1.50;1.40;;;3.90;99.90;;;2.24;99.61;96863.91;5029317;28;20463;-73
2021/12/25 10:12:06;;;;;;;1.40;1.30;;;3.80;99.90;;;2.15;99.22;96862.41;5024907;28;20869;-73
2021/12/25 10:14:33;;;;;;;1.70;1.60;;;3.70;99.90;;;1.99;99.70;96861.63;5028929;28;20473;-74
2021/12/25 10:17:14;;;;;;;1.33;1.23;;;3.60;99.90;;;1.96;99.85;96854.84;5027755;28;20516;-74
2021/12/25 10:19:41;;;;;;;1.57;1.47;;;3.60;99.90;;;1.92;100.00;96864.22;5042794;28;20465;-73
2021/12/25 10:22:11;;;;;;;1.30;1.20;;;3.50;99.90;;;1.91;99.78;96862.56;5028104;28;20459;-73
2021/12/25 10:24:48;;;;;;;1.47;1.30;;;3.50;99.90;;;1.94;100.00;96866.69;5027148;28;20473;-72
2021/12/25 10:27:20;;;;;;;1.40;1.30;;;3.50;99.90;;;1.91;100.00;96867.06;5041547;28;20458;-74
2021/12/25 10:29:48;;;;;;;1.43;1.33;;;3.50;99.90;;;1.79;99.90;96878.19;5034761;28;20545;-74
2021/12/25 10:32:22;;;;;;;2.40;1.23;;;3.40;99.90;;;1.72;100.00;96865.81;5024880;28;21037;-72
2021/12/25 10:34:53;;;;;;;2.03;1.30;;;3.40;99.90;;;1.72;100.00;96868.50;5029683;28;20503;-73
2021/12/25 10:37:23;;;;;;;1.60;1.50;;;3.30;99.90;;;1.68;100.00;96857.41;5040313;28;20491;-73
2021/12/25 10:39:51;;;;;;;1.10;1.10;;;3.30;99.90;;;1.71;100.00;96865.00;5029988;28;20470;-75
2021/12/25 10:42:23;;;;;;;1.80;1.33;;;3.30;99.90;;;1.01;100.00;96755.44;5027627;28;20500;-74
2021/12/25 10:44:54;;;;;;;2.10;1.90;;;3.20;99.90;;;1.73;100.00;96859.47;5028183;28;20486;-74
2021/12/25 10:47:24;;;;;;;1.40;1.30;;;3.30;99.90;;;1.69;100.00;96859.06;5027183;28;20482;-73
2021/12/25 10:49:55;;;;;;;1.37;1.27;;;3.30;99.90;;;1.63;99.78;96860.63;5027581;28;20542;-73
2021/12/25 10:52:28;;;;;;;1.67;1.57;;;3.20;99.90;;;1.61;99.47;96860.00;5026553;28;20470;-73
2021/12/25 10:54:59;;;;;;;1.67;1.57;;;3.20;99.90;;;1.41;98.77;96847.25;5027823;28;20488;-73
2021/12/25 10:57:38;;;;;;;1.93;1.67;;;3.20;98.50;;;1.33;99.47;96828.72;5025822;28;20966;-72
2021/12/25 11:00:10;;;;;;;1.40;1.30;;;3.10;99.90;;;1.47;99.40;96850.19;5026677;28;21025;-72
2021/12/25 11:02:40;;;;;;;1.87;1.77;;;3.10;99.90;;;1.42;100.00;96848.06;5042980;28;20664;-73
2021/12/25 11:05:21;;;;;;;2.00;1.90;;;3.00;99.90;;;1.40;100.00;96834.94;5027659;28;20467;-71
2021/12/25 11:07:50;;;;;;;1.93;1.83;;;3.00;99.90;;;1.04;100.00;96761.22;5042962;28;20929;-72
2021/12/25 11:10:19;;;;;;;1.83;1.73;;;3.10;99.90;;;1.51;100.00;96835.50;5026925;28;20536;-72
2021/12/25 11:12:48;;;;;;;1.80;1.70;;;3.10;99.90;;;1.59;99.86;96839.88;5027117;28;20501;-72
2021/12/25 11:15:21;;;;;;;1.70;1.60;;;3.10;99.90;;;1.40;99.55;96845.59;5028133;28;20570;-72